Time;durP1;ratioP1;P1;durP2;ratioP2;P2;SDS_P1;SDS_P2;PMS_P1;PMS_P2;Temp;Humidity;BMP_temperature;BMP_pressure;BME280_temperature;BME280_humidity;BME280_pressure;Samples;Min_cycle;Max_cycle;Signal;HPM_P1;HPM_P2
2022/12/27 00:02:19;;;;;;;25.58;6.72;;;2.90;99.90;;;;;;4999017;28;20046;-70
2022/12/27 00:04:45;;;;;;;19.42;7.82;;;2.90;99.90;;;;;;5002188;28;20074;-69
2022/12/27 00:07:11;;;;;;;16.33;7.00;;;2.90;99.90;;;;;;4999876;28;20053;-70
2022/12/27 00:09:37;;;;;;;20.30;6.68;;;2.90;99.90;;;;;;4996831;28;20045;-70
2022/12/27 00:12:03;;;;;;;18.40;7.07;;;2.90;99.90;;;;;;5000670;28;20414;-70
2022/12/27 00:14:30;;;;;;;17.70;6.35;;;2.90;99.90;;;;;;4998741;28;20135;-70
2022/12/27 00:16:55;;;;;;;14.35;7.03;;;2.90;99.90;;;;;;5000810;28;20034;-70
2022/12/27 00:19:21;;;;;;;16.52;6.95;;;2.90;99.90;;;;;;4984732;28;20100;-70
2022/12/27 00:21:47;;;;;;;15.85;7.20;;;2.90;99.90;;;;;;5000866;28;20042;-70
2022/12/27 00:24:13;;;;;;;12.40;7.50;;;3.00;99.90;;;;;;5002143;28;20045;-70
2022/12/27 00:26:39;;;;;;;17.92;6.85;;;3.00;99.90;;;;;;4999273;28;20038;-70
2022/12/27 00:29:05;;;;;;;14.55;6.38;;;2.90;99.90;;;;;;5002184;28;20054;-70
2022/12/27 00:31:32;;;;;;;26.20;7.20;;;3.00;99.90;;;;;;4999531;28;20782;-70
2022/12/27 00:34:01;;;;;;;14.57;6.40;;;3.00;99.90;;;;;;4999469;28;20041;-70
2022/12/27 00:36:29;;;;;;;14.00;6.18;;;3.00;99.90;;;;;;4995838;28;20132;-70
2022/12/27 00:38:57;;;;;;;22.48;6.35;;;3.00;99.90;;;;;;5003439;28;20058;-70
2022/12/27 00:41:23;;;;;;;17.30;6.60;;;3.00;99.90;;;;;;5001207;28;20038;-70
2022/12/27 00:43:49;;;;;;;16.75;6.15;;;3.00;99.90;;;;;;5003821;28;20038;-70
2022/12/27 00:46:15;;;;;;;18.95;7.03;;;3.10;99.90;;;;;;4999628;28;20384;-70
2022/12/27 00:48:40;;;;;;;14.65;6.22;;;3.00;99.90;;;;;;5002328;28;20491;-70
2022/12/27 00:51:15;;;;;;;17.17;7.55;;;3.10;99.90;;;;;;4999299;28;20052;-70
2022/12/27 00:53:43;;;;;;;15.32;6.70;;;3.10;99.90;;;;;;4984494;28;20133;-70
2022/12/27 00:56:16;;;;;;;15.23;5.65;;;3.10;99.90;;;;;;4996873;28;20065;-70
2022/12/27 00:58:42;;;;;;;17.30;5.82;;;3.20;99.90;;;;;;4999096;28;20113;-70
2022/12/27 01:01:16;;;;;;;16.88;5.40;;;3.20;99.90;;;;;;4999174;28;20095;-70
2022/12/27 01:03:42;;;;;;;19.95;6.57;;;3.20;99.90;;;;;;5001595;28;20441;-70
2022/12/27 01:06:11;;;;;;;14.07;6.05;;;3.10;99.90;;;;;;4982108;28;20049;-70
2022/12/27 01:08:38;;;;;;;15.32;5.45;;;3.20;99.90;;;;;;4999659;28;20042;-70
2022/12/27 01:11:04;;;;;;;13.88;5.75;;;3.10;99.90;;;;;;5003737;28;20042;-70
2022/12/27 01:13:30;;;;;;;17.65;6.05;;;3.10;99.90;;;;;;5003214;28;20092;-70
2022/12/27 01:15:56;;;;;;;11.43;6.03;;;3.20;99.90;;;;;;5002044;28;20049;-70
2022/12/27 01:18:22;;;;;;;18.80;5.88;;;3.10;99.90;;;;;;4981292;28;20061;-70
2022/12/27 01:20:48;;;;;;;14.32;6.50;;;3.10;99.90;;;;;;4998977;28;20398;-70
2022/12/27 01:23:13;;;;;;;12.10;5.47;;;3.10;99.90;;;;;;4999284;28;20038;-70
2022/12/27 01:25:39;;;;;;;17.88;5.90;;;3.10;99.90;;;;;;5002211;28;20053;-70
2022/12/27 01:28:05;;;;;;;19.33;6.50;;;3.10;99.90;;;;;;5003712;28;20129;-70
2022/12/27 01:30:31;;;;;;;25.35;7.57;;;3.10;99.90;;;;;;4985118;28;20053;-70
2022/12/27 01:32:56;;;;;;;13.77;5.93;;;3.00;99.90;;;;;;5005442;28;20045;-70
2022/12/27 01:35:22;;;;;;;17.02;6.32;;;3.10;99.90;;;;;;5000422;28;20402;-70
2022/12/27 01:37:49;;;;;;;12.98;5.85;;;3.10;99.90;;;;;;5003119;28;20042;-70
2022/12/27 01:40:15;;;;;;;15.52;5.45;;;3.10;99.90;;;;;;5005058;28;20046;-70
2022/12/27 01:42:54;;;;;;;15.57;5.57;;;3.10;99.90;;;;;;5003365;28;20596;-70
2022/12/27 01:45:22;;;;;;;12.98;6.30;;;3.00;99.90;;;;;;5004734;28;21392;-70
2022/12/27 01:48:08;;;;;;;20.58;7.78;;;3.10;99.90;;;;;;5002328;28;20060;-70
2022/12/27 01:50:39;;;;;;;17.80;5.53;;;3.00;99.90;;;;;;5004264;28;20030;-70
2022/12/27 01:53:13;;;;;;;7.32;3.15;;;3.00;99.90;;;;;;5000701;28;20061;-70
2022/12/27 01:55:59;;;;;;;26.02;5.95;;;3.00;99.90;;;;;;5001898;28;20053;-70
2022/12/27 01:58:34;;;;;;;30.05;6.13;;;3.00;99.90;;;;;;5004383;28;20054;-70
2022/12/27 02:01:01;;;;;;;20.20;6.70;;;2.90;99.90;;;;;;4982826;28;20050;-70
2022/12/27 02:03:37;;;;;;;22.45;7.10;;;3.00;99.90;;;;;;4996445;28;20101;-70
2022/12/27 02:06:07;;;;;;;13.60;6.05;;;3.00;99.90;;;;;;5002310;28;20050;-70
2022/12/27 02:08:52;;;;;;;18.15;5.63;;;3.00;99.90;;;;;;5000030;28;20045;-70
2022/12/27 02:11:49;;;;;;;18.58;6.13;;;2.90;99.90;;;;;;5001625;28;20136;-70
2022/12/27 02:14:09;;;;;;;13.88;5.88;;;3.00;99.90;;;;;;5002071;28;20054;-70
2022/12/27 02:16:35;;;;;;;16.15;6.60;;;3.00;99.90;;;;;;4999828;28;20069;-70
2022/12/27 02:19:01;;;;;;;17.48;6.68;;;2.90;99.90;;;;;;5001232;28;20070;-70
2022/12/27 02:21:35;;;;;;;12.43;5.43;;;2.90;99.90;;;;;;5003758;28;20046;-70
2022/12/27 02:24:17;;;;;;;30.10;7.15;;;2.90;99.90;;;;;;5006573;28;20057;-70
2022/12/27 02:27:20;;;;;;;17.38;5.35;;;2.90;99.90;;;;;;5003490;28;20037;-70
2022/12/27 02:29:59;;;;;;;21.90;6.88;;;3.00;99.90;;;;;;5001978;28;20049;-70
2022/12/27 02:32:43;;;;;;;24.50;6.60;;;3.10;99.90;;;;;;5002355;28;20173;-70
2022/12/27 02:35:17;;;;;;;23.65;6.63;;;3.10;99.90;;;;;;5006103;28;20080;-70
2022/12/27 02:38:04;;;;;;;20.35;5.72;;;3.20;99.90;;;;;;4999903;28;20177;-70
2022/12/27 02:54:36;;;;;;;9.65;5.25;;;3.50;99.90;;;;;;4998324;28;20085;-70
2022/12/27 02:57:29;;;;;;;11.30;5.43;;;3.60;99.90;;;;;;4966838;28;21756;-70
2022/12/27 03:03:23;;;;;;;23.48;5.90;;;3.60;99.90;;;;;;5003807;28;20054;-70
2022/12/27 03:06:38;;;;;;;16.50;5.80;;;3.60;99.90;;;;;;5000537;28;20045;-70
2022/12/27 03:15:53;;;;;;;18.65;5.32;;;3.70;99.90;;;;;;5002202;28;20046;-70
2022/12/27 03:17:58;;;;;;;29.35;6.50;;;3.80;99.90;;;;;;5002845;28;20049;-70
2022/12/27 03:25:56;;;;;;;16.33;5.97;;;3.90;99.90;;;;;;5002565;28;20077;-70
2022/12/27 03:34:34;;;;;;;27.17;8.30;;;4.00;99.90;;;;;;4983697;28;20049;-70
2022/12/27 03:40:19;;;;;;;13.57;5.72;;;4.00;99.90;;;;;;5003349;28;20077;-70
2022/12/27 03:43:11;;;;;;;13.68;5.95;;;4.10;99.90;;;;;;4967941;28;20084;-70
2022/12/27 03:49:30;;;;;;;15.40;6.72;;;4.10;99.90;;;;;;5001129;28;20049;-70
2022/12/27 03:52:10;;;;;;;14.88;5.82;;;4.10;99.90;;;;;;4967969;28;20991;-70
2022/12/27 03:54:42;;;;;;;12.00;4.82;;;4.10;99.90;;;;;;5002083;28;20150;-70
2022/12/27 03:57:11;;;;;;;24.20;6.05;;;4.00;99.90;;;;;;4998826;28;20507;-70
2022/12/27 03:59:38;;;;;;;19.60;5.50;;;4.00;99.90;;;;;;5004059;28;20060;-70
2022/12/27 04:02:06;;;;;;;28.80;7.20;;;4.00;99.90;;;;;;5000108;28;20049;-70
2022/12/27 04:04:32;;;;;;;20.35;5.60;;;4.00;99.90;;;;;;4988216;28;20050;-70
2022/12/27 04:06:58;;;;;;;32.17;6.80;;;4.00;99.90;;;;;;5002931;28;20057;-70
2022/12/27 04:36:47;;;;;;;17.83;6.60;;;4.00;99.90;;;;;;4983599;28;20062;-70
2022/12/27 04:39:13;;;;;;;19.23;5.25;;;4.00;99.90;;;;;;5004365;28;20525;-70
2022/12/27 04:55:31;;;;;;;14.25;6.22;;;4.00;99.90;;;;;;5003109;28;20074;-71
2022/12/27 04:57:57;;;;;;;18.48;6.20;;;4.00;99.90;;;;;;5003794;28;20080;-71
2022/12/27 05:03:16;;;;;;;17.25;6.28;;;4.00;99.90;;;;;;5009337;28;20063;-70
2022/12/27 05:05:43;;;;;;;17.13;6.35;;;4.00;99.90;;;;;;5011282;28;20046;-71
2022/12/27 05:16:22;;;;;;;13.85;5.45;;;4.10;99.90;;;;;;5004868;28;20526;-70
2022/12/27 05:18:48;;;;;;;12.80;5.43;;;4.00;99.90;;;;;;5007648;28;20064;-70
2022/12/27 05:21:15;;;;;;;20.90;5.60;;;4.10;99.90;;;;;;5007909;28;20053;-70
2022/12/27 05:26:28;;;;;;;19.50;5.80;;;4.00;99.90;;;;;;5008153;28;20053;-70
2022/12/27 05:28:56;;;;;;;21.77;6.65;;;4.00;99.90;;;;;;5005534;28;20061;-70
2022/12/27 05:31:23;;;;;;;9.60;4.60;;;4.00;99.90;;;;;;5003588;28;20056;-70
2022/12/27 05:33:50;;;;;;;18.73;5.30;;;3.90;99.90;;;;;;4973322;28;20069;-70
2022/12/27 05:36:16;;;;;;;20.67;6.10;;;3.90;99.90;;;;;;5004565;28;20061;-70
2022/12/27 05:38:41;;;;;;;19.30;5.97;;;3.90;99.90;;;;;;5005426;28;20503;-70
2022/12/27 05:41:08;;;;;;;14.32;5.57;;;3.90;99.90;;;;;;5009840;28;20135;-70
2022/12/27 05:43:33;;;;;;;14.43;5.72;;;3.90;99.90;;;;;;5006922;28;20125;-70
2022/12/27 05:46:04;;;;;;;18.52;5.35;;;3.80;99.90;;;;;;4989139;28;20188;-70
2022/12/27 05:48:30;;;;;;;14.80;4.63;;;3.90;99.90;;;;;;5005234;28;20042;-70
2022/12/27 05:50:56;;;;;;;21.10;6.45;;;3.80;99.90;;;;;;5006675;28;20108;-70
2022/12/27 05:53:21;;;;;;;16.90;5.47;;;3.80;99.90;;;;;;4988264;28;20053;-70
2022/12/27 05:55:55;;;;;;;18.05;4.97;;;3.90;99.90;;;;;;5005117;28;20488;-70
2022/12/27 05:58:21;;;;;;;12.30;5.75;;;3.90;99.90;;;;;;5006825;28;20092;-70
2022/12/27 06:00:46;;;;;;;19.83;4.90;;;3.90;99.90;;;;;;5007350;28;20049;-70
2022/12/27 06:03:12;;;;;;;26.10;6.35;;;3.90;99.90;;;;;;4975466;28;20042;-70
2022/12/27 06:05:37;;;;;;;15.50;5.40;;;3.90;99.90;;;;;;4988320;28;20042;-70
2022/12/27 06:08:03;;;;;;;24.45;7.28;;;3.90;99.90;;;;;;4998268;28;20071;-70
2022/12/27 06:10:29;;;;;;;20.20;5.60;;;3.80;99.90;;;;;;5002296;28;20100;-70
2022/12/27 06:12:55;;;;;;;17.83;5.22;;;3.90;99.90;;;;;;4989067;28;20049;-70
2022/12/27 06:15:20;;;;;;;15.77;5.10;;;3.80;99.90;;;;;;5008909;28;20578;-70
2022/12/27 06:17:46;;;;;;;17.13;5.28;;;3.80;99.90;;;;;;4987804;28;20579;-70
2022/12/27 06:20:11;;;;;;;17.98;6.72;;;3.80;99.90;;;;;;5003034;28;20046;-70
2022/12/27 06:22:37;;;;;;;24.42;6.07;;;3.80;99.90;;;;;;5002715;28;20077;-70
2022/12/27 06:25:03;;;;;;;16.83;6.20;;;3.80;99.90;;;;;;5002818;28;20072;-70
2022/12/27 06:27:29;;;;;;;20.95;6.63;;;3.80;99.90;;;;;;5007863;28;20041;-70
2022/12/27 06:29:54;;;;;;;15.98;5.30;;;3.80;99.90;;;;;;5008519;28;20169;-70
2022/12/27 06:32:20;;;;;;;19.58;6.05;;;3.80;99.90;;;;;;5006692;28;20038;-70
2022/12/27 06:34:45;;;;;;;17.05;5.13;;;3.80;99.90;;;;;;5008285;28;20034;-70
2022/12/27 06:37:11;;;;;;;11.80;5.47;;;3.80;99.90;;;;;;5005760;28;20092;-71
2022/12/27 06:39:37;;;;;;;18.40;5.72;;;3.80;99.90;;;;;;5004483;28;20041;-71
2022/12/27 06:42:03;;;;;;;10.45;5.53;;;3.80;99.90;;;;;;4998003;28;20897;-70
2022/12/27 06:44:28;;;;;;;14.38;5.80;;;3.80;99.90;;;;;;5002598;28;20096;-70
2022/12/27 06:46:55;;;;;;;23.25;6.03;;;3.80;99.90;;;;;;4999555;28;20044;-70
2022/12/27 06:49:21;;;;;;;15.52;5.97;;;3.80;99.90;;;;;;4999622;28;20487;-70
2022/12/27 06:51:47;;;;;;;19.98;6.38;;;3.80;99.90;;;;;;5003731;28;20042;-70
2022/12/27 06:54:13;;;;;;;22.98;6.80;;;3.80;99.90;;;;;;5001102;28;20136;-70
2022/12/27 06:56:39;;;;;;;16.30;7.40;;;3.80;99.90;;;;;;5007316;28;20151;-70
2022/12/27 06:59:04;;;;;;;15.60;5.88;;;3.80;99.90;;;;;;4999781;28;20081;-70
2022/12/27 07:01:30;;;;;;;16.67;6.25;;;3.70;99.90;;;;;;4995386;28;20379;-70
2022/12/27 07:03:58;;;;;;;21.35;6.65;;;3.70;99.90;;;;;;5009219;28;20038;-70
2022/12/27 07:06:25;;;;;;;;;;;3.70;99.90;;;;;;5004563;28;20033;-70
2022/12/27 07:08:51;;;;;;;11.70;5.47;;;3.60;99.90;;;;;;5008608;28;19929;-70
2022/12/27 07:11:19;;;;;;;15.68;6.35;;;3.60;99.90;;;;;;4983806;28;20046;-70
2022/12/27 07:13:50;;;;;;;12.95;7.13;;;3.60;99.90;;;;;;4997583;28;20072;-70
2022/12/27 07:16:19;;;;;;;22.80;7.32;;;3.60;99.90;;;;;;5005538;28;20884;-70
2022/12/27 07:18:44;;;;;;;16.95;6.32;;;3.50;99.90;;;;;;5002621;28;20053;-70
2022/12/27 07:21:13;;;;;;;19.92;8.05;;;3.60;99.90;;;;;;5001496;28;20042;-71
2022/12/27 07:23:39;;;;;;;21.20;6.75;;;3.60;99.90;;;;;;4985441;28;20053;-70
2022/12/27 07:26:10;;;;;;;22.70;7.50;;;3.50;99.90;;;;;;5002295;28;20050;-70
2022/12/27 07:28:36;;;;;;;16.38;6.95;;;3.50;99.90;;;;;;4985794;28;20057;-70
2022/12/27 07:31:07;;;;;;;31.08;6.95;;;3.50;99.90;;;;;;5006002;28;20498;-70
2022/12/27 07:33:33;;;;;;;25.83;7.05;;;3.50;99.90;;;;;;5007187;28;20034;-71
2022/12/27 07:36:00;;;;;;;14.38;7.38;;;3.50;99.90;;;;;;5002710;28;20050;-70
2022/12/27 07:38:26;;;;;;;16.98;7.03;;;3.50;99.90;;;;;;4999844;28;20085;-70
2022/12/27 07:40:52;;;;;;;36.80;7.63;;;3.50;99.90;;;;;;5001493;28;20124;-70
2022/12/27 07:43:19;;;;;;;15.45;6.22;;;3.50;99.90;;;;;;5003713;28;20545;-70
2022/12/27 07:45:44;;;;;;;18.50;7.43;;;3.50;99.90;;;;;;5002965;28;20499;-70
2022/12/27 07:48:10;;;;;;;20.45;7.32;;;3.50;99.90;;;;;;4973840;28;20080;-70
2022/12/27 07:50:36;;;;;;;19.52;7.72;;;3.50;99.90;;;;;;5003162;28;20042;-70
2022/12/27 07:53:01;;;;;;;22.70;7.45;;;3.40;99.90;;;;;;4997175;28;20066;-70
2022/12/27 07:55:27;;;;;;;15.80;7.97;;;3.40;99.90;;;;;;4999683;28;20487;-70
2022/12/27 07:57:53;;;;;;;15.43;6.50;;;3.40;99.90;;;;;;5005537;28;20045;-70
2022/12/27 08:00:19;;;;;;;13.13;7.10;;;3.40;99.90;;;;;;4976526;28;20196;-72
2022/12/27 08:02:46;;;;;;;19.08;6.82;;;3.40;99.90;;;;;;4992086;28;20046;-70
2022/12/27 08:05:12;;;;;;;29.48;7.65;;;3.40;99.90;;;;;;5005126;28;20536;-70
2022/12/27 08:07:39;;;;;;;22.85;7.40;;;3.40;99.90;;;;;;5005011;28;20050;-70
2022/12/27 08:10:05;;;;;;;14.30;6.72;;;3.30;99.90;;;;;;4983055;28;20564;-70
2022/12/27 08:12:31;;;;;;;20.38;9.02;;;3.40;99.90;;;;;;4998965;28;20525;-70
2022/12/27 08:14:57;;;;;;;23.42;8.38;;;3.30;99.90;;;;;;4979166;28;20042;-70
2022/12/27 08:17:26;;;;;;;26.88;8.10;;;3.30;99.90;;;;;;4997869;28;20790;-71
2022/12/27 08:19:53;;;;;;;21.98;9.27;;;3.30;99.90;;;;;;4996431;28;20137;-70
2022/12/27 08:22:19;;;;;;;22.77;6.88;;;3.30;99.90;;;;;;5001803;28;20045;-70
2022/12/27 08:24:45;;;;;;;22.60;8.10;;;3.20;99.90;;;;;;4995914;28;20038;-70
2022/12/27 08:27:11;;;;;;;18.98;7.70;;;3.20;99.90;;;;;;5004761;28;20402;-71
2022/12/27 08:29:37;;;;;;;20.00;8.63;;;3.20;99.90;;;;;;4999064;28;20038;-71
2022/12/27 08:32:04;;;;;;;27.70;8.52;;;3.30;99.90;;;;;;5001329;28;20073;-70
2022/12/27 08:34:30;;;;;;;15.95;7.30;;;3.30;99.90;;;;;;4995967;28;20049;-71
2022/12/27 08:36:55;;;;;;;17.58;6.53;;;3.30;99.90;;;;;;5005152;28;20503;-71
2022/12/27 08:39:21;;;;;;;19.85;8.70;;;3.30;99.90;;;;;;5001685;28;20034;-71
2022/12/27 08:41:47;;;;;;;17.90;8.13;;;3.30;99.90;;;;;;5002835;28;20042;-70
2022/12/27 08:44:12;;;;;;;18.48;7.80;;;3.30;99.90;;;;;;5002519;28;20089;-71
2022/12/27 08:46:38;;;;;;;26.88;8.43;;;3.40;99.90;;;;;;5005544;28;20039;-70
2022/12/27 08:49:04;;;;;;;17.30;7.50;;;3.40;99.90;;;;;;5003239;28;20077;-70
2022/12/27 08:51:30;;;;;;;18.80;7.72;;;3.40;99.90;;;;;;5001118;28;20121;-71
2022/12/27 08:53:56;;;;;;;14.13;7.40;;;3.40;99.90;;;;;;5002926;28;20046;-71
2022/12/27 08:56:21;;;;;;;19.35;7.32;;;3.40;99.90;;;;;;4998487;28;20760;-71
2022/12/27 08:58:48;;;;;;;20.02;7.97;;;3.40;99.90;;;;;;4982169;28;20049;-71
2022/12/27 09:01:14;;;;;;;17.67;7.28;;;3.40;99.90;;;;;;5002443;28;20054;-71
2022/12/27 09:03:40;;;;;;;16.67;8.00;;;3.40;99.90;;;;;;5002655;28;20038;-71
2022/12/27 09:06:14;;;;;;;17.23;7.07;;;3.40;99.90;;;;;;5001547;28;20048;-71
2022/12/27 09:08:41;;;;;;;26.25;8.65;;;3.40;99.90;;;;;;5000679;28;20561;-71
2022/12/27 09:11:13;;;;;;;19.50;8.88;;;3.40;99.90;;;;;;4969926;28;20096;-70
2022/12/27 09:13:39;;;;;;;22.55;7.95;;;3.50;99.90;;;;;;4984112;28;20192;-70
2022/12/27 09:16:07;;;;;;;17.70;9.30;;;3.50;99.90;;;;;;5003354;28;20180;-71
2022/12/27 09:18:33;;;;;;;25.40;9.95;;;3.50;99.90;;;;;;5008517;28;20041;-70
2022/12/27 09:21:06;;;;;;;21.50;9.55;;;3.50;99.90;;;;;;4982001;28;20410;-71
2022/12/27 09:23:33;;;;;;;22.33;8.30;;;3.50;99.90;;;;;;5007675;28;20042;-71
2022/12/27 09:26:03;;;;;;;17.60;8.32;;;3.50;99.90;;;;;;4989134;28;20104;-70
2022/12/27 09:28:29;;;;;;;17.50;7.80;;;3.60;99.90;;;;;;4996647;28;20514;-71
2022/12/27 09:30:55;;;;;;;17.33;8.23;;;3.60;99.90;;;;;;4988992;28;20046;-71
2022/12/27 09:33:20;;;;;;;17.92;7.25;;;3.60;99.90;;;;;;5000279;28;20502;-71
2022/12/27 09:35:46;;;;;;;21.58;9.32;;;3.70;99.90;;;;;;4979898;28;20050;-71
2022/12/27 09:38:11;;;;;;;29.30;8.88;;;3.70;99.90;;;;;;4984207;28;20157;-71
2022/12/27 09:40:37;;;;;;;19.70;8.27;;;3.70;99.90;;;;;;4964644;28;20507;-70
2022/12/27 09:43:11;;;;;;;23.30;8.48;;;3.70;99.90;;;;;;4982220;28;20478;-70
2022/12/27 09:45:42;;;;;;;18.60;8.13;;;3.80;99.90;;;;;;4982272;28;20054;-71
2022/12/27 09:48:24;;;;;;;24.80;7.22;;;3.80;99.90;;;;;;4982145;28;20046;-70
2022/12/27 09:50:57;;;;;;;14.75;7.75;;;3.90;99.90;;;;;;4981348;28;20049;-70
2022/12/27 09:53:32;;;;;;;20.48;8.80;;;3.80;99.90;;;;;;4979946;28;20045;-71
2022/12/27 09:55:58;;;;;;;31.30;9.27;;;3.90;99.90;;;;;;4984621;28;20050;-71
2022/12/27 09:59:02;;;;;;;23.95;9.60;;;4.00;99.90;;;;;;4986289;28;20422;-71
2022/12/27 10:01:34;;;;;;;18.17;8.35;;;4.00;99.90;;;;;;4964984;28;20055;-72
2022/12/27 10:04:00;;;;;;;16.55;7.60;;;4.00;99.90;;;;;;4979054;28;20129;-71
2022/12/27 10:06:32;;;;;;;19.20;7.72;;;4.10;99.90;;;;;;4982351;28;20217;-71
2022/12/27 10:09:35;;;;;;;22.83;9.07;;;4.10;99.90;;;;;;4979306;28;20125;-70
2022/12/27 10:12:40;;;;;;;19.67;9.38;;;4.20;99.90;;;;;;4978221;28;20057;-71
2022/12/27 10:15:47;;;;;;;22.55;9.30;;;4.20;99.90;;;;;;4982786;28;20046;-71
2022/12/27 10:18:42;;;;;;;20.83;8.32;;;4.30;99.90;;;;;;4981220;28;20140;-71
2022/12/27 10:21:19;;;;;;;31.05;8.48;;;4.40;99.90;;;;;;4973587;28;20518;-71
2022/12/27 10:24:11;;;;;;;29.00;9.23;;;4.50;99.90;;;;;;4981994;28;20499;-71
2022/12/27 10:26:37;;;;;;;23.95;8.38;;;4.50;99.90;;;;;;4978385;28;20047;-71
2022/12/27 10:29:20;;;;;;;23.88;6.82;;;4.60;99.90;;;;;;4986889;28;20419;-70
2022/12/27 10:31:46;;;;;;;18.95;8.52;;;4.70;99.90;;;;;;4988278;28;20285;-70
2022/12/27 10:34:15;;;;;;;17.27;8.05;;;4.70;99.90;;;;;;4988595;28;20851;-70
2022/12/27 10:36:43;;;;;;;19.27;8.70;;;4.80;99.90;;;;;;5004249;28;20122;-70
2022/12/27 10:39:24;;;;;;;18.90;8.65;;;4.80;99.90;;;;;;4989415;28;20459;-71
2022/12/27 10:42:29;;;;;;;22.42;8.55;;;4.90;99.90;;;;;;4984270;28;20100;-71
2022/12/27 10:45:33;;;;;;;21.40;7.57;;;5.00;99.90;;;;;;4992792;28;20188;-71
2022/12/27 10:48:19;;;;;;;20.85;7.82;;;5.10;99.90;;;;;;4997019;28;20173;-71
2022/12/27 10:50:59;;;;;;;23.70;7.70;;;5.10;99.90;;;;;;5008311;28;20060;-71
2022/12/27 10:53:36;;;;;;;24.20;8.75;;;5.20;99.90;;;;;;5008091;28;20498;-71
2022/12/27 10:56:12;;;;;;;17.00;6.60;;;5.30;99.90;;;;;;5008156;28;20046;-70
2022/12/27 10:58:49;;;;;;;45.45;7.95;;;5.40;99.90;;;;;;4990020;28;20049;-71
2022/12/27 11:01:26;;;;;;;13.75;7.13;;;5.40;99.90;;;;;;5003691;28;20045;-71
2022/12/27 11:04:10;;;;;;;19.83;7.65;;;5.50;99.90;;;;;;5003089;28;20069;-70
2022/12/27 11:06:36;;;;;;;37.42;7.50;;;5.50;99.90;;;;;;4959956;28;20089;-71
2022/12/27 11:09:19;;;;;;;30.05;7.70;;;5.50;99.90;;;;;;4991288;28;20085;-71
2022/12/27 11:11:45;;;;;;;12.52;6.75;;;5.50;99.90;;;;;;5001664;28;20050;-71
2022/12/27 11:14:17;;;;;;;22.90;8.90;;;5.50;99.90;;;;;;4999821;28;20077;-71
2022/12/27 11:16:44;;;;;;;18.27;6.88;;;5.50;99.90;;;;;;5007737;28;20155;-70
2022/12/27 11:19:23;;;;;;;26.02;7.88;;;5.50;99.90;;;;;;4990773;28;20575;-70
2022/12/27 11:21:51;;;;;;;16.48;7.53;;;5.50;99.90;;;;;;4987103;28;20078;-71
2022/12/27 11:24:19;;;;;;;18.27;7.35;;;5.50;99.90;;;;;;4974114;28;20057;-71
2022/12/27 11:26:53;;;;;;;19.42;8.18;;;5.50;99.90;;;;;;4971273;28;20085;-71
2022/12/27 11:29:22;;;;;;;32.15;7.80;;;5.50;99.90;;;;;;4985534;28;20049;-71
2022/12/27 11:31:50;;;;;;;16.42;6.72;;;5.60;99.90;;;;;;4993361;28;20050;-70
2022/12/27 11:34:53;;;;;;;29.77;8.60;;;5.60;99.90;;;;;;4984299;28;20128;-71
2022/12/27 11:37:23;;;;;;;25.33;8.48;;;5.60;99.90;;;;;;4909520;29;20768;-70
2022/12/27 11:39:52;;;;;;;18.77;7.28;;;5.70;99.90;;;;;;4951130;28;20126;-70
2022/12/27 11:42:20;;;;;;;22.73;6.57;;;5.70;99.90;;;;;;4960911;28;20054;-71
2022/12/27 11:45:03;;;;;;;13.05;7.47;;;5.80;99.90;;;;;;4945597;28;20063;-70
2022/12/27 11:47:48;;;;;;;17.67;8.18;;;5.80;99.90;;;;;;4943713;28;20126;-70
2022/12/27 11:50:25;;;;;;;27.48;7.07;;;5.90;99.90;;;;;;4965432;28;20062;-70
2022/12/27 11:53:09;;;;;;;27.80;8.45;;;6.00;99.90;;;;;;4954414;28;20038;-69
2022/12/27 11:55:51;;;;;;;14.60;5.50;;;6.00;99.90;;;;;;4963792;28;20469;-69
2022/12/27 11:58:44;;;;;;;17.13;6.13;;;6.10;99.90;;;;;;4958939;28;20062;-69
2022/12/27 12:01:28;;;;;;;17.65;8.18;;;6.10;99.90;;;;;;4964634;28;20047;-69
2022/12/27 12:04:24;;;;;;;19.83;7.60;;;6.10;99.90;;;;;;4963463;28;20053;-69
2022/12/27 12:07:21;;;;;;;25.23;7.00;;;6.10;99.90;;;;;;4949653;28;20051;-70
2022/12/27 12:10:14;;;;;;;16.30;6.90;;;6.10;99.90;;;;;;4960195;28;20057;-70
2022/12/27 12:12:55;;;;;;;8.38;4.97;;;6.10;99.90;;;;;;4963620;28;20061;-70
2022/12/27 12:15:22;;;;;;;11.25;5.05;;;6.20;99.90;;;;;;4967785;28;20109;-70
2022/12/27 12:17:59;;;;;;;18.50;6.27;;;6.20;99.90;;;;;;4967215;28;20051;-70
2022/12/27 12:20:45;;;;;;;16.60;5.82;;;6.20;99.90;;;;;;4965722;28;20297;-69
2022/12/27 12:23:17;;;;;;;8.73;4.07;;;6.20;99.90;;;;;;4966947;28;20125;-69
2022/12/27 12:25:49;;;;;;;18.10;4.72;;;6.20;99.90;;;;;;4965852;28;20043;-71
2022/12/27 12:28:30;;;;;;;16.55;5.90;;;6.20;99.90;;;;;;4965153;28;20540;-71
2022/12/27 12:31:33;;;;;;;15.25;5.10;;;6.20;99.90;;;;;;4962727;28;20058;-70
2022/12/27 12:34:06;;;;;;;10.80;5.35;;;6.20;99.90;;;;;;4965728;28;20062;-70
2022/12/27 12:36:46;;;;;;;13.82;5.93;;;6.20;99.90;;;;;;4995520;28;20046;-70
2022/12/27 12:39:27;;;;;;;12.95;5.13;;;6.20;99.90;;;;;;4989588;28;20185;-69
2022/12/27 12:42:08;;;;;;;12.18;4.95;;;6.10;99.90;;;;;;5003500;28;20061;-70
2022/12/27 12:44:55;;;;;;;18.58;7.57;;;6.10;99.90;;;;;;4983809;28;20100;-70
2022/12/27 12:47:28;;;;;;;11.82;5.78;;;6.10;99.90;;;;;;4997798;28;20404;-70
2022/12/27 12:50:19;;;;;;;16.52;6.22;;;6.00;99.90;;;;;;4985172;28;20050;-70
2022/12/27 12:52:47;;;;;;;15.13;7.10;;;6.10;99.90;;;;;;4989438;28;20105;-70
2022/12/27 12:55:34;;;;;;;17.80;5.90;;;6.10;99.90;;;;;;5006697;28;20557;-70
2022/12/27 12:58:37;;;;;;;18.02;6.97;;;6.10;99.90;;;;;;4989468;28;20066;-69
2022/12/27 13:01:21;;;;;;;16.08;6.93;;;6.10;99.90;;;;;;4984509;28;20054;-70
2022/12/27 13:04:21;;;;;;;17.40;7.95;;;6.10;99.90;;;;;;5005135;28;20418;-69
2022/12/27 13:06:56;;;;;;;21.27;9.38;;;6.10;99.90;;;;;;5002162;28;20065;-69
2022/12/27 13:09:57;;;;;;;23.75;10.80;;;6.10;99.90;;;;;;5006074;28;20041;-70
2022/12/27 13:12:49;;;;;;;24.77;11.13;;;6.10;99.90;;;;;;4972074;28;20050;-69
2022/12/27 13:15:53;;;;;;;34.72;17.13;;;6.10;99.90;;;;;;5006087;28;20470;-70
2022/12/27 13:18:45;;;;;;;26.83;14.65;;;6.10;99.90;;;;;;5001326;28;20040;-69
2022/12/27 13:21:41;;;;;;;21.08;9.43;;;6.10;99.90;;;;;;4995094;28;20512;-69
2022/12/27 13:24:21;;;;;;;20.10;9.85;;;6.20;99.90;;;;;;5008805;28;20526;-69
2022/12/27 13:26:52;;;;;;;27.38;13.50;;;6.20;99.90;;;;;;5011408;28;20053;-70
2022/12/27 13:29:44;;;;;;;27.83;9.88;;;6.20;99.90;;;;;;5007465;28;20135;-69
2022/12/27 13:32:26;;;;;;;33.25;14.68;;;6.20;99.90;;;;;;4979235;28;20050;-70
2022/12/27 13:35:01;;;;;;;26.65;13.30;;;6.20;99.90;;;;;;4997606;28;20046;-69
2022/12/27 13:37:45;;;;;;;26.00;13.50;;;6.30;99.90;;;;;;4997055;28;20050;-70
2022/12/27 13:40:46;;;;;;;37.65;14.20;;;6.20;99.90;;;;;;5008266;28;20042;-70
2022/12/27 13:43:35;;;;;;;36.38;13.57;;;6.20;99.90;;;;;;5003503;28;20049;-70
2022/12/27 13:46:14;;;;;;;18.02;12.50;;;6.20;99.90;;;;;;5008154;28;20461;-70
2022/12/27 13:48:53;;;;;;;23.30;12.13;;;6.20;99.90;;;;;;5010092;28;20050;-70
2022/12/27 13:51:42;;;;;;;23.80;13.23;;;6.20;99.90;;;;;;5009130;28;20598;-70
2022/12/27 13:54:59;;;;;;;23.80;12.55;;;6.20;99.90;;;;;;5009474;28;20046;-70
2022/12/27 13:57:55;;;;;;;25.50;15.02;;;6.20;99.90;;;;;;4955263;28;20062;-70
2022/12/27 14:00:22;;;;;;;23.40;15.43;;;6.20;99.90;;;;;;5006151;28;20049;-69
2022/12/27 14:03:20;;;;;;;30.35;16.25;;;6.20;99.90;;;;;;5007550;28;20085;-70
2022/12/27 14:06:05;;;;;;;28.08;16.38;;;6.20;99.90;;;;;;4937006;28;20477;-70
2022/12/27 14:08:39;;;;;;;25.83;16.38;;;6.20;99.90;;;;;;5009716;28;20048;-69
2022/12/27 14:11:35;;;;;;;33.45;18.38;;;6.20;99.90;;;;;;5008220;28;20053;-69
2022/12/27 14:14:03;;;;;;;33.03;18.63;;;6.20;99.90;;;;;;5009284;28;20065;-70
2022/12/27 14:16:39;;;;;;;30.75;18.05;;;6.20;99.90;;;;;;5008712;28;20054;-70
2022/12/27 14:19:08;;;;;;;29.80;18.77;;;6.20;99.90;;;;;;4991757;28;20050;-69
2022/12/27 14:21:59;;;;;;;36.15;18.83;;;6.10;99.90;;;;;;4986732;28;20085;-69
2022/12/27 14:24:56;;;;;;;31.42;20.05;;;6.10;99.90;;;;;;5002634;28;20114;-70
2022/12/27 14:27:53;;;;;;;39.40;21.60;;;6.10;99.90;;;;;;5001113;28;20569;-70
2022/12/27 14:31:01;;;;;;;28.15;20.23;;;6.10;99.90;;;;;;4992922;28;20058;-70
2022/12/27 14:33:38;;;;;;;27.83;19.90;;;6.10;99.90;;;;;;5002174;28;20042;-70
2022/12/27 14:36:24;;;;;;;31.65;21.98;;;6.00;99.90;;;;;;4978993;28;20135;-70
2022/12/27 14:39:28;;;;;;;30.17;18.88;;;6.00;99.90;;;;;;4971347;28;20051;-70
2022/12/27 14:42:23;;;;;;;30.13;23.15;;;6.00;99.90;;;;;;4980549;28;20753;-70
2022/12/27 14:44:58;;;;;;;40.85;25.15;;;6.00;99.90;;;;;;4987354;28;20042;-70
2022/12/27 14:47:52;;;;;;;33.17;24.42;;;6.00;99.90;;;;;;4989347;28;20132;-70
2022/12/27 14:50:26;;;;;;;34.20;24.15;;;5.90;99.90;;;;;;4988195;28;20057;-70
2022/12/27 14:53:05;;;;;;;33.78;23.20;;;5.90;99.90;;;;;;4989170;28;20054;-74
2022/12/27 14:55:39;;;;;;;43.03;23.98;;;5.90;99.90;;;;;;4986543;28;20050;-70
2022/12/27 14:58:13;;;;;;;46.72;26.25;;;5.90;99.90;;;;;;4987491;28;20069;-70